createdAt,value
2017-08-07T00:00:58.738Z,83.0
2017-08-07T00:01:59.393Z,83.0
2017-08-07T00:03:00.041Z,82.7
2017-08-07T00:04:00.694Z,83.7
2017-08-07T00:05:01.631Z,83.9
2017-08-07T00:06:02.284Z,83.4
2017-08-07T00:07:02.971Z,83.6
2017-08-07T00:08:03.623Z,83.5
2017-08-07T00:09:04.274Z,84.4
2017-08-07T00:10:05.181Z,84.4
2017-08-07T00:11:05.830Z,83.9
2017-08-07T00:12:06.481Z,83.3
2017-08-07T00:13:07.136Z,82.5
2017-08-07T00:14:07.786Z,82.8
2017-08-07T00:15:08.689Z,83.3
2017-08-07T00:16:09.342Z,82.7
2017-08-07T00:17:09.994Z,83.3
2017-08-07T00:18:10.646Z,83.3
2017-08-07T00:19:11.302Z,83.0
2017-08-07T00:20:12.252Z,82.5
2017-08-07T00:21:12.902Z,83.2
2017-08-07T00:22:13.563Z,82.7
2017-08-07T00:23:14.206Z,82.9
2017-08-07T00:24:14.859Z,82.5
2017-08-07T00:25:15.761Z,82.8
2017-08-07T00:26:16.413Z,83.4
2017-08-07T00:27:17.065Z,83.3
2017-08-07T00:28:17.717Z,83.1
2017-08-07T00:29:18.406Z,83.4
2017-08-07T00:30:19.358Z,83.3
2017-08-07T00:31:20.047Z,84.2
2017-08-07T00:32:20.699Z,83.7
2017-08-07T00:33:21.351Z,82.7
2017-08-07T00:34:22.002Z,80.1
2017-08-07T00:35:22.905Z,79.4
2017-08-07T00:36:23.556Z,78.6
2017-08-07T00:37:24.209Z,78.2
2017-08-07T00:38:24.862Z,77.8
2017-08-07T00:39:25.512Z,77.6
2017-08-07T00:40:26.465Z,77.5
2017-08-07T00:41:27.116Z,77.6
2017-08-07T00:42:27.769Z,77.1
2017-08-07T00:43:28.421Z,77.2
2017-08-07T00:44:29.072Z,76.8
2017-08-07T00:45:29.976Z,76.7
2017-08-07T00:46:30.628Z,76.5
2017-08-07T00:47:31.281Z,77.8
2017-08-07T00:48:31.932Z,77.2
2017-08-07T00:49:32.585Z,76.7
2017-08-07T00:50:33.486Z,77.4
2017-08-07T00:51:34.137Z,77.2
2017-08-07T00:52:34.791Z,77.7
2017-08-07T00:53:35.479Z,78.3
2017-08-07T00:54:36.130Z,78.0
2017-08-07T00:55:37.083Z,78.0
2017-08-07T00:56:37.737Z,77.8
2017-08-07T00:57:38.388Z,78.4
2017-08-07T00:58:39.039Z,78.3
2017-08-07T00:59:39.691Z,78.0
2017-08-07T01:00:40.643Z,78.3
2017-08-07T01:01:41.296Z,78.8
2017-08-07T01:02:41.985Z,79.2
2017-08-07T01:03:42.637Z,79.0
2017-08-07T01:04:43.289Z,79.2
2017-08-07T01:05:44.241Z,79.6
2017-08-07T01:06:44.894Z,79.2
2017-08-07T01:07:45.579Z,79.4
2017-08-07T01:08:46.232Z,79.1
2017-08-07T01:09:46.885Z,79.3
2017-08-07T01:10:47.788Z,79.6
2017-08-07T01:11:48.441Z,79.3
2017-08-07T01:12:49.092Z,79.4
2017-08-07T01:13:49.780Z,79.1
2017-08-07T01:14:50.433Z,79.5
2017-08-07T01:15:51.337Z,79.8
2017-08-07T01:16:51.984Z,79.6
2017-08-07T01:17:52.639Z,79.3
2017-08-07T01:18:53.323Z,79.6
2017-08-07T01:19:53.981Z,79.4
2017-08-07T01:20:54.965Z,79.5
2017-08-07T01:21:55.618Z,79.5
2017-08-07T01:22:56.271Z,79.6
2017-08-07T01:23:56.922Z,79.6
2017-08-07T01:24:57.610Z,79.5
2017-08-07T01:25:58.513Z,80.0
2017-08-07T01:26:59.166Z,79.8
2017-08-07T01:27:59.821Z,80.1
2017-08-07T01:29:00.469Z,80.4
2017-08-07T01:30:01.121Z,79.7
2017-08-07T01:31:02.073Z,79.9
2017-08-07T01:32:02.725Z,80.0
2017-08-07T01:33:03.376Z,79.5
2017-08-07T01:34:04.028Z,80.2
2017-08-07T01:35:04.683Z,80.0
2017-08-07T01:36:05.619Z,79.1
2017-08-07T01:37:06.281Z,78.9
2017-08-07T01:38:06.934Z,79.6
2017-08-07T01:39:07.585Z,79.0
2017-08-07T01:40:08.238Z,79.9
2017-08-07T01:41:09.190Z,78.7
2017-08-07T01:42:09.849Z,79.2
2017-08-07T01:43:10.500Z,78.6
2017-08-07T01:44:11.156Z,78.7
2017-08-07T01:45:11.843Z,78.8
2017-08-07T01:46:12.745Z,78.4
2017-08-07T01:47:13.397Z,78.0
2017-08-07T01:48:14.049Z,80.0
2017-08-07T01:49:14.701Z,79.3
2017-08-07T01:50:15.353Z,78.1
2017-08-07T01:51:16.254Z,77.5
2017-08-07T01:52:16.908Z,77.4
2017-08-07T01:53:17.559Z,77.1
2017-08-07T01:54:18.211Z,77.4
2017-08-07T01:55:18.863Z,77.4
2017-08-07T01:56:19.818Z,77.2
2017-08-07T01:57:20.469Z,77.3
2017-08-07T01:58:21.121Z,77.1
2017-08-07T01:59:21.772Z,77.4
2017-08-07T02:00:22.426Z,78.0
2017-08-07T02:01:23.327Z,78.2
2017-08-07T02:02:23.979Z,78.4
2017-08-07T02:03:24.632Z,79.6
2017-08-07T02:04:25.284Z,79.6
2017-08-07T02:05:25.935Z,79.0
2017-08-07T02:06:26.840Z,79.6
2017-08-07T02:07:27.494Z,79.1
2017-08-07T02:08:28.148Z,79.5
2017-08-07T02:09:28.806Z,79.4
2017-08-07T02:10:29.451Z,79.3
2017-08-07T02:11:30.404Z,79.8
2017-08-07T02:12:31.056Z,79.5
2017-08-07T02:13:31.707Z,79.6
2017-08-07T02:14:32.359Z,79.4
2017-08-07T02:15:33.013Z,79.6
2017-08-07T02:16:33.965Z,79.6
2017-08-07T02:17:34.618Z,79.3
2017-08-07T02:18:35.270Z,80.0
2017-08-07T02:19:35.922Z,79.9
2017-08-07T02:20:36.574Z,80.2
2017-08-07T02:21:37.532Z,80.0
2017-08-07T02:22:38.182Z,82.2
2017-08-07T02:23:38.832Z,81.4
2017-08-07T02:24:39.483Z,82.1
2017-08-07T02:25:40.136Z,82.8
2017-08-07T02:26:41.124Z,82.1
2017-08-07T02:27:41.778Z,82.9
2017-08-07T02:28:42.431Z,82.9
2017-08-07T02:29:43.082Z,82.7
2017-08-07T02:30:43.733Z,83.2
2017-08-07T02:31:44.637Z,83.6
2017-08-07T02:32:45.290Z,83.9
2017-08-07T02:33:45.942Z,84.4
2017-08-07T02:34:46.595Z,85.2
2017-08-07T02:35:47.246Z,85.4
2017-08-07T02:36:48.185Z,85.5
2017-08-07T02:37:48.838Z,85.6
2017-08-07T02:38:49.490Z,85.8
2017-08-07T02:39:50.143Z,86.3
2017-08-07T02:40:50.795Z,86.6
2017-08-07T02:41:51.747Z,86.5
2017-08-07T02:42:52.400Z,86.9
2017-08-07T02:43:53.053Z,87.4
2017-08-07T02:44:53.705Z,87.2
2017-08-07T02:45:54.356Z,88.0
2017-08-07T02:46:55.309Z,87.9
2017-08-07T02:47:55.961Z,87.7
2017-08-07T02:48:56.611Z,87.3
2017-08-07T02:49:57.265Z,87.6
2017-08-07T02:50:57.928Z,87.7
2017-08-07T02:51:58.830Z,87.7
2017-08-07T02:52:59.482Z,87.8
2017-08-07T02:54:00.134Z,87.9
2017-08-07T02:55:00.822Z,87.8
2017-08-07T02:56:01.476Z,87.8
2017-08-07T02:57:02.429Z,87.6
2017-08-07T02:58:03.080Z,87.7
2017-08-07T02:59:03.734Z,88.3
2017-08-07T03:00:04.386Z,88.3
2017-08-07T03:01:05.039Z,89.4
2017-08-07T03:02:05.941Z,88.4
2017-08-07T03:03:06.592Z,87.5
2017-08-07T03:04:07.246Z,86.5
2017-08-07T03:05:07.898Z,84.8
2017-08-07T03:06:08.586Z,84.6
2017-08-07T03:07:09.539Z,84.2
2017-08-07T03:08:10.192Z,84.0
2017-08-07T03:09:10.845Z,84.2
2017-08-07T03:10:11.534Z,84.8
2017-08-07T03:11:12.189Z,84.9
2017-08-07T03:12:13.140Z,84.7
2017-08-07T03:13:13.792Z,84.7
2017-08-07T03:14:14.445Z,84.3
2017-08-07T03:15:15.097Z,84.5
2017-08-07T03:16:15.768Z,84.3
2017-08-07T03:17:16.650Z,85.3
2017-08-07T03:18:17.305Z,85.6
2017-08-07T03:19:17.994Z,85.4
2017-08-07T03:20:18.647Z,86.4
2017-08-07T03:21:19.298Z,86.5
2017-08-07T03:22:20.202Z,86.7
2017-08-07T03:23:20.854Z,87.0
2017-08-07T03:24:21.505Z,87.9
2017-08-07T03:25:22.158Z,88.4
2017-08-07T03:26:22.811Z,88.1
2017-08-07T03:27:23.713Z,88.6
2017-08-07T03:28:24.368Z,88.5
2017-08-07T03:29:25.022Z,88.5
2017-08-07T03:30:25.674Z,88.9
2017-08-07T03:31:26.327Z,88.3
2017-08-07T03:32:27.281Z,88.2
2017-08-07T03:33:27.935Z,86.9
2017-08-07T03:34:28.587Z,84.2
2017-08-07T03:35:29.246Z,84.5
2017-08-07T03:36:29.899Z,85.4
2017-08-07T03:37:30.805Z,85.3
2017-08-07T03:38:31.457Z,85.4
2017-08-07T03:39:32.110Z,86.2
2017-08-07T03:40:32.765Z,87.9
2017-08-07T03:41:33.425Z,86.0
2017-08-07T03:42:34.322Z,84.8
2017-08-07T03:43:34.977Z,84.2
2017-08-07T03:44:35.631Z,83.8
2017-08-07T03:45:36.289Z,83.9
2017-08-07T03:46:36.939Z,84.6
2017-08-07T03:47:37.846Z,84.0
2017-08-07T03:48:38.499Z,85.8
2017-08-07T03:49:39.151Z,84.7
2017-08-07T03:50:39.806Z,85.4
2017-08-07T03:51:40.460Z,85.8
2017-08-07T03:52:41.415Z,86.0
2017-08-07T03:53:42.068Z,84.6
2017-08-07T03:54:42.725Z,84.5
2017-08-07T03:55:43.379Z,84.3
2017-08-07T03:56:44.032Z,84.2
2017-08-07T03:57:44.937Z,84.1
2017-08-07T03:58:45.597Z,84.6
2017-08-07T03:59:46.256Z,84.3
2017-08-07T04:00:46.905Z,84.5
2017-08-07T04:01:47.560Z,84.5
2017-08-07T04:02:48.465Z,84.9
2017-08-07T04:03:49.121Z,84.9
2017-08-07T04:04:49.775Z,84.7
2017-08-07T04:05:50.434Z,85.4
2017-08-07T04:06:51.087Z,86.3
2017-08-07T04:07:51.992Z,87.2
2017-08-07T04:08:52.646Z,87.3
2017-08-07T04:09:53.302Z,87.6
2017-08-07T04:10:53.961Z,87.9
2017-08-07T04:11:54.612Z,88.1
2017-08-07T04:12:55.517Z,88.8
2017-08-07T04:13:56.179Z,89.5
2017-08-07T04:14:56.828Z,89.6
2017-08-07T04:15:57.483Z,89.4
2017-08-07T04:16:58.140Z,89.9
2017-08-07T04:17:59.097Z,90.0
2017-08-07T04:18:59.752Z,90.1
2017-08-07T04:20:00.408Z,89.9
2017-08-07T04:21:01.064Z,89.4
2017-08-07T04:22:01.722Z,90.1
2017-08-07T04:23:02.629Z,90.4
2017-08-07T04:24:03.284Z,90.6
2017-08-07T04:25:03.941Z,90.1
2017-08-07T04:26:04.599Z,90.2
2017-08-07T04:27:05.257Z,88.9
2017-08-07T04:28:06.214Z,88.4
2017-08-07T04:29:06.870Z,88.3
2017-08-07T04:30:07.527Z,88.5
2017-08-07T04:31:08.183Z,88.5
2017-08-07T04:32:08.843Z,88.4
2017-08-07T04:33:09.785Z,87.9
2017-08-07T04:34:10.441Z,89.5
2017-08-07T04:35:11.097Z,89.5
2017-08-07T04:36:11.754Z,89.5
2017-08-07T04:37:12.409Z,89.5
2017-08-07T04:38:13.366Z,89.2
2017-08-07T04:39:14.023Z,90.1
2017-08-07T04:40:14.678Z,89.8
2017-08-07T04:41:15.335Z,89.7
2017-08-07T04:42:15.991Z,89.5
2017-08-07T04:43:16.948Z,89.2
2017-08-07T04:44:17.605Z,89.6
2017-08-07T04:45:18.260Z,89.7
2017-08-07T04:46:18.919Z,90.7
2017-08-07T04:47:19.574Z,89.8
2017-08-07T04:48:20.480Z,89.3
2017-08-07T04:49:21.136Z,88.7
2017-08-07T04:50:21.794Z,89.5
2017-08-07T04:51:22.454Z,89.8
2017-08-07T04:52:23.107Z,89.7
2017-08-07T04:53:24.014Z,90.5
2017-08-07T04:54:24.671Z,90.3
2017-08-07T04:55:25.328Z,90.8
2017-08-07T04:56:25.985Z,90.4
2017-08-07T04:57:26.642Z,91.1
2017-08-07T04:58:27.549Z,90.4
2017-08-07T04:59:28.207Z,89.9
2017-08-07T05:00:28.862Z,90.1
2017-08-07T05:01:29.519Z,89.6
2017-08-07T05:02:30.175Z,89.7
2017-08-07T05:03:31.093Z,90.1
2017-08-07T05:04:31.751Z,90.2
2017-08-07T05:05:32.408Z,90.1
2017-08-07T05:06:33.064Z,90.0
2017-08-07T05:07:33.719Z,89.8
2017-08-07T05:08:34.630Z,90.5
2017-08-07T05:09:35.284Z,90.1
2017-08-07T05:10:35.939Z,89.6
2017-08-07T05:11:36.595Z,89.5
2017-08-07T05:12:37.253Z,89.7
2017-08-07T05:13:38.209Z,90.5
2017-08-07T05:14:38.866Z,89.5
2017-08-07T05:15:39.523Z,89.5
2017-08-07T05:16:40.178Z,89.6
2017-08-07T05:17:40.836Z,89.7
2017-08-07T05:18:41.792Z,90.7
2017-08-07T05:19:42.447Z,90.4
2017-08-07T05:20:43.107Z,90.4
2017-08-07T05:21:43.759Z,90.9
2017-08-07T05:22:44.419Z,90.3
2017-08-07T05:23:45.324Z,89.5
2017-08-07T05:24:45.980Z,89.3
2017-08-07T05:25:46.640Z,88.3
2017-08-07T05:26:47.293Z,88.8
2017-08-07T05:27:47.949Z,88.5
2017-08-07T05:28:48.906Z,88.9
2017-08-07T05:29:49.563Z,88.3
2017-08-07T05:30:50.260Z,87.9
2017-08-07T05:31:51.012Z,87.4
2017-08-07T05:32:51.701Z,87.6
2017-08-07T05:33:52.609Z,87.3
2017-08-07T05:34:53.265Z,87.1
2017-08-07T05:35:53.931Z,87.1
2017-08-07T05:36:54.580Z,87.1
2017-08-07T05:37:55.239Z,86.8
2017-08-07T05:38:56.148Z,86.7
2017-08-07T05:39:56.806Z,86.3
2017-08-07T05:40:57.464Z,86.1
2017-08-07T05:41:58.120Z,85.6
2017-08-07T05:42:58.776Z,85.7
2017-08-07T05:43:59.687Z,85.5
2017-08-07T05:45:00.338Z,85.5
2017-08-07T05:46:00.994Z,85.6
2017-08-07T05:47:01.652Z,85.0
2017-08-07T05:48:02.308Z,84.9
2017-08-07T05:49:03.216Z,85.0
2017-08-07T05:50:03.872Z,85.0
2017-08-07T05:51:04.534Z,84.8
2017-08-07T05:52:05.187Z,85.5
2017-08-07T05:53:05.845Z,85.3
2017-08-07T05:54:06.752Z,84.5
2017-08-07T05:55:07.411Z,83.9
2017-08-07T05:56:08.073Z,84.5
2017-08-07T05:57:08.732Z,84.3
2017-08-07T05:58:09.427Z,83.9
2017-08-07T05:59:10.334Z,83.9
2017-08-07T06:00:10.992Z,83.6
2017-08-07T06:01:11.649Z,83.7
2017-08-07T06:02:12.311Z,84.5
2017-08-07T06:03:12.972Z,84.3
2017-08-07T06:04:13.879Z,83.6
2017-08-07T06:05:14.539Z,83.6
2017-08-07T06:06:15.197Z,83.7
2017-08-07T06:07:15.858Z,82.8
2017-08-07T06:08:16.518Z,83.3
2017-08-07T06:09:17.476Z,82.7
2017-08-07T06:10:18.133Z,82.1
2017-08-07T06:11:18.792Z,81.6
2017-08-07T06:12:19.451Z,82.3
2017-08-07T06:13:20.146Z,82.0
2017-08-07T06:14:21.104Z,81.9
2017-08-07T06:15:21.762Z,81.4
2017-08-07T06:16:22.421Z,80.8
2017-08-07T06:17:23.079Z,80.3
2017-08-07T06:18:23.739Z,79.5
2017-08-07T06:19:24.707Z,79.3
2017-08-07T06:20:25.358Z,80.1
2017-08-07T06:21:26.018Z,79.5
2017-08-07T06:22:26.677Z,79.2
2017-08-07T06:23:27.335Z,78.9
2017-08-07T06:24:28.332Z,78.4
2017-08-07T06:25:28.992Z,78.1
2017-08-07T06:26:29.650Z,78.2
2017-08-07T06:27:30.307Z,78.1
2017-08-07T06:28:30.968Z,78.3
2017-08-07T06:29:31.928Z,78.1
2017-08-07T06:30:32.588Z,77.4
2017-08-07T06:31:33.282Z,76.9
2017-08-07T06:32:33.940Z,76.9
2017-08-07T06:33:34.603Z,77.3
2017-08-07T06:34:35.515Z,76.9
2017-08-07T06:35:36.211Z,76.9
2017-08-07T06:36:36.871Z,77.0
2017-08-07T06:37:37.563Z,76.2
2017-08-07T06:38:38.223Z,75.2
2017-08-07T06:39:39.183Z,76.4
2017-08-07T06:40:39.844Z,75.6
2017-08-07T06:41:40.504Z,75.7
2017-08-07T06:42:41.164Z,75.3
2017-08-07T06:43:41.824Z,73.9
2017-08-07T06:44:42.735Z,74.4
2017-08-07T06:45:43.395Z,74.0
2017-08-07T06:46:44.054Z,73.9
2017-08-07T06:47:44.714Z,73.4
2017-08-07T06:48:45.373Z,73.5
2017-08-07T06:49:46.282Z,74.5
2017-08-07T06:50:46.947Z,73.4
2017-08-07T06:51:47.608Z,74.2
2017-08-07T06:52:48.266Z,73.8
2017-08-07T06:53:48.926Z,73.4
2017-08-07T06:54:49.872Z,73.5
2017-08-07T06:55:50.568Z,74.0
2017-08-07T06:56:51.228Z,74.0
2017-08-07T06:57:51.929Z,73.8
2017-08-07T06:58:52.584Z,75.9
2017-08-07T06:59:53.546Z,75.3
2017-08-07T07:00:54.207Z,75.1
2017-08-07T07:01:54.868Z,75.6
2017-08-07T07:02:55.528Z,76.3
2017-08-07T07:03:56.192Z,75.3
2017-08-07T07:04:57.100Z,73.3
2017-08-07T07:05:57.760Z,74.3
2017-08-07T07:06:58.421Z,73.8
2017-08-07T07:07:59.081Z,74.9
2017-08-07T07:08:59.741Z,73.6
2017-08-07T07:10:00.702Z,73.5
2017-08-07T07:11:01.365Z,73.9
2017-08-07T07:12:02.022Z,74.7
2017-08-07T07:13:02.683Z,75.2
2017-08-07T07:14:03.345Z,74.1
2017-08-07T07:15:04.256Z,72.9
2017-08-07T07:16:04.921Z,72.8
2017-08-07T07:17:05.586Z,71.9
2017-08-07T07:18:06.242Z,70.9
2017-08-07T07:19:06.903Z,71.5
2017-08-07T07:20:07.864Z,72.8
2017-08-07T07:21:08.523Z,72.0
2017-08-07T07:22:09.186Z,71.6
2017-08-07T07:23:09.845Z,72.6
2017-08-07T07:24:10.520Z,71.5
2017-08-07T07:25:11.434Z,70.2
2017-08-07T07:26:12.091Z,70.9
2017-08-07T07:27:12.752Z,70.4
2017-08-07T07:28:13.416Z,70.4
2017-08-07T07:29:14.081Z,70.9
2017-08-07T07:30:15.029Z,69.8
2017-08-07T07:31:15.691Z,69.7
2017-08-07T07:32:16.353Z,70.3
2017-08-07T07:33:17.018Z,69.3
2017-08-07T07:34:17.713Z,69.8
2017-08-07T07:35:18.677Z,69.7
2017-08-07T07:36:19.336Z,70.0
2017-08-07T07:37:19.997Z,69.5
2017-08-07T07:38:20.657Z,68.8
2017-08-07T07:39:21.321Z,66.6
2017-08-07T07:40:22.285Z,67.0
2017-08-07T07:41:22.979Z,67.4
2017-08-07T07:42:23.640Z,68.7
2017-08-07T07:43:24.303Z,70.4
2017-08-07T07:44:24.967Z,69.4
2017-08-07T07:45:25.931Z,67.5
2017-08-07T07:46:26.593Z,67.3
2017-08-07T07:47:27.255Z,69.7
2017-08-07T07:48:27.917Z,69.3
2017-08-07T07:49:28.579Z,66.9
2017-08-07T07:50:29.542Z,67.5
2017-08-07T07:51:30.206Z,67.0
2017-08-07T07:52:30.868Z,66.2
2017-08-07T07:53:31.527Z,66.5
2017-08-07T07:54:32.190Z,64.8
2017-08-07T07:55:33.101Z,64.8
2017-08-07T07:56:33.766Z,64.1
2017-08-07T07:57:34.428Z,65.4
2017-08-07T07:58:35.126Z,64.9
2017-08-07T07:59:35.786Z,64.7
2017-08-07T08:00:36.702Z,64.9
2017-08-07T08:01:37.363Z,64.6
2017-08-07T08:02:38.026Z,64.3
2017-08-07T08:03:38.689Z,62.8
2017-08-07T08:04:39.351Z,61.2
2017-08-07T08:05:40.266Z,59.4
2017-08-07T08:06:40.935Z,58.0
2017-08-07T08:07:41.598Z,56.8
2017-08-07T08:08:42.261Z,57.5
2017-08-07T08:09:42.924Z,57.0
2017-08-07T08:10:43.838Z,57.5
2017-08-07T08:11:44.501Z,57.2
2017-08-07T08:12:45.167Z,56.6
2017-08-07T08:13:45.825Z,57.0
2017-08-07T08:14:46.495Z,59.3
2017-08-07T08:15:47.405Z,58.3
2017-08-07T08:16:48.070Z,57.8
2017-08-07T08:17:48.741Z,56.0
2017-08-07T08:18:49.408Z,57.2
2017-08-07T08:19:50.069Z,52.0
2017-08-07T08:20:50.982Z,52.8
2017-08-07T08:21:51.646Z,53.0
2017-08-07T08:22:52.310Z,56.7
2017-08-07T08:23:52.977Z,52.8
2017-08-07T08:24:53.643Z,53.4
2017-08-07T08:25:54.608Z,51.7
2017-08-07T08:26:55.273Z,49.7
2017-08-07T08:27:55.938Z,48.4
2017-08-07T08:28:56.603Z,48.8
2017-08-07T08:29:57.269Z,46.4
2017-08-07T08:30:58.234Z,45.6
2017-08-07T08:31:58.901Z,44.8
2017-08-07T08:32:59.605Z,45.0
2017-08-07T08:34:00.303Z,44.8
2017-08-07T08:35:00.969Z,47.2
2017-08-07T08:36:01.888Z,44.2
2017-08-07T08:37:02.588Z,43.5
2017-08-07T08:38:03.252Z,45.1
2017-08-07T08:39:03.919Z,44.8
2017-08-07T08:40:04.583Z,44.2
2017-08-07T08:41:05.554Z,44.7
2017-08-07T08:42:06.219Z,44.2
2017-08-07T08:43:06.887Z,42.9
2017-08-07T08:44:07.551Z,42.6
2017-08-07T08:45:08.218Z,41.2
2017-08-07T08:46:09.133Z,41.8
2017-08-07T08:47:09.803Z,41.3
2017-08-07T08:48:10.500Z,42.0
2017-08-07T08:49:11.202Z,40.6
2017-08-07T08:50:11.876Z,41.3
2017-08-07T08:51:12.842Z,41.2
2017-08-07T08:52:13.510Z,42.1
2017-08-07T08:53:14.176Z,42.4
2017-08-07T08:54:14.877Z,40.3
2017-08-07T08:55:15.542Z,39.4
2017-08-07T08:56:16.508Z,38.8
2017-08-07T08:57:17.174Z,38.2
2017-08-07T08:58:17.841Z,38.0
2017-08-07T08:59:18.507Z,38.8
2017-08-07T09:00:19.174Z,38.7
2017-08-07T09:01:20.090Z,36.6
2017-08-07T09:02:20.756Z,37.0
2017-08-07T09:03:21.423Z,36.9
2017-08-07T09:04:22.087Z,37.2
2017-08-07T09:05:22.755Z,38.3
2017-08-07T09:06:23.671Z,37.8
2017-08-07T09:07:24.337Z,37.2
2017-08-07T09:08:25.039Z,36.8
2017-08-07T09:09:25.706Z,35.9
2017-08-07T09:10:26.373Z,36.9
2017-08-07T09:11:27.291Z,36.4
2017-08-07T09:12:27.957Z,35.2
2017-08-07T09:13:28.627Z,38.1
2017-08-07T09:14:29.288Z,35.9
2017-08-07T09:15:29.962Z,35.3
2017-08-07T09:16:30.873Z,35.0
2017-08-07T09:17:31.539Z,36.3
2017-08-07T09:18:32.205Z,34.7
2017-08-07T09:19:32.873Z,35.1
2017-08-07T09:20:33.543Z,35.0
2017-08-07T09:21:34.456Z,35.8
2017-08-07T09:22:35.122Z,34.8
2017-08-07T09:23:35.786Z,34.1
2017-08-07T09:24:36.453Z,34.7
2017-08-07T09:25:37.121Z,33.4
2017-08-07T09:26:38.086Z,34.1
2017-08-07T09:27:38.753Z,32.6
2017-08-07T09:28:39.425Z,31.1
2017-08-07T09:29:40.093Z,30.9
2017-08-07T09:30:40.758Z,32.1
2017-08-07T09:31:41.676Z,32.8
2017-08-07T09:32:42.347Z,34.5
2017-08-07T09:33:43.011Z,33.7
2017-08-07T09:34:43.675Z,33.0
2017-08-07T09:35:44.342Z,32.5
2017-08-07T09:36:45.344Z,29.6
2017-08-07T09:37:46.010Z,29.8
2017-08-07T09:38:46.679Z,29.7
2017-08-07T09:39:47.347Z,29.0
2017-08-07T09:40:48.014Z,28.0
2017-08-07T09:41:48.982Z,25.7
2017-08-07T09:42:49.650Z,26.7
2017-08-07T09:43:50.316Z,26.5
2017-08-07T09:44:50.991Z,25.2
2017-08-07T09:45:51.661Z,24.0
2017-08-07T09:46:52.634Z,25.0
2017-08-07T09:47:53.341Z,26.6
2017-08-07T09:48:54.010Z,22.6
2017-08-07T09:49:54.683Z,22.0
2017-08-07T09:50:55.354Z,25.7
2017-08-07T09:51:56.277Z,25.3
2017-08-07T09:52:56.948Z,24.9
2017-08-07T09:53:57.622Z,23.5
2017-08-07T09:54:58.300Z,21.8
2017-08-07T09:55:58.972Z,21.8
2017-08-07T09:56:59.896Z,22.1
2017-08-07T09:58:00.567Z,21.8
2017-08-07T09:59:01.238Z,22.4
2017-08-07T10:00:01.915Z,23.5
2017-08-07T10:01:02.588Z,20.9
2017-08-07T10:02:03.510Z,23.0
2017-08-07T10:03:04.183Z,22.2
2017-08-07T10:04:04.858Z,19.7
2017-08-07T10:05:05.570Z,19.4
2017-08-07T10:06:06.254Z,19.7
2017-08-07T10:07:07.177Z,21.0
2017-08-07T10:08:07.849Z,19.6
2017-08-07T10:09:08.521Z,19.9
2017-08-07T10:10:09.193Z,19.1
2017-08-07T10:11:09.872Z,20.3
2017-08-07T10:12:10.798Z,22.2
2017-08-07T10:13:11.509Z,19.9
2017-08-07T10:14:12.181Z,20.1
2017-08-07T10:15:12.857Z,20.3
2017-08-07T10:16:13.523Z,21.8
2017-08-07T10:17:14.494Z,21.9
2017-08-07T10:18:15.164Z,21.8
2017-08-07T10:19:15.834Z,21.7
2017-08-07T10:20:16.506Z,23.5
2017-08-07T10:21:17.175Z,22.8
2017-08-07T10:22:18.145Z,23.3
2017-08-07T10:23:18.815Z,25.9
2017-08-07T10:24:19.484Z,24.4
2017-08-07T10:25:20.152Z,25.1
2017-08-07T10:26:20.823Z,24.8
2017-08-07T10:27:21.752Z,24.4
2017-08-07T10:28:22.418Z,22.9
2017-08-07T10:29:23.088Z,21.0
2017-08-07T10:30:23.761Z,18.6
2017-08-07T10:31:24.433Z,18.2
2017-08-07T10:32:25.357Z,18.2
2017-08-07T10:33:26.070Z,17.0
2017-08-07T10:34:26.738Z,17.9
2017-08-07T10:35:27.407Z,16.9
2017-08-07T10:36:28.078Z,17.8
2017-08-07T10:37:29.051Z,15.9
2017-08-07T10:38:29.724Z,16.0
2017-08-07T10:39:30.397Z,14.5
2017-08-07T10:40:31.069Z,14.3
2017-08-07T10:41:31.744Z,14.0
2017-08-07T10:42:32.719Z,14.3
2017-08-07T10:43:33.393Z,14.0
2017-08-07T10:44:34.069Z,13.6
2017-08-07T10:45:34.741Z,14.7
2017-08-07T10:46:35.412Z,14.3
2017-08-07T10:47:36.337Z,14.7
2017-08-07T10:48:37.007Z,16.0
2017-08-07T10:49:37.682Z,16.8
2017-08-07T10:50:38.357Z,14.6
2017-08-07T10:51:39.039Z,13.9
2017-08-07T10:52:39.954Z,14.6
2017-08-07T10:53:40.629Z,14.7
2017-08-07T10:54:41.303Z,13.6
2017-08-07T10:55:41.978Z,12.4
2017-08-07T10:56:42.649Z,12.8
2017-08-07T10:57:43.573Z,14.7
2017-08-07T10:58:44.246Z,15.1
2017-08-07T10:59:44.952Z,14.9
2017-08-07T11:00:45.624Z,15.8
2017-08-07T11:01:46.298Z,14.9
2017-08-07T11:02:47.223Z,15.9
2017-08-07T11:03:47.932Z,18.3
2017-08-07T11:04:48.604Z,16.7
2017-08-07T11:05:49.279Z,16.7
2017-08-07T11:06:49.945Z,17.5
2017-08-07T11:07:50.870Z,17.5
2017-08-07T11:08:51.542Z,15.5
2017-08-07T11:09:52.213Z,15.0
2017-08-07T11:10:52.922Z,14.8
2017-08-07T11:11:53.593Z,13.9
2017-08-07T11:12:54.565Z,14.0
2017-08-07T11:13:55.236Z,15.5
2017-08-07T11:14:55.910Z,16.4
2017-08-07T11:15:56.584Z,15.5
2017-08-07T11:16:57.255Z,14.5
2017-08-07T11:17:58.177Z,15.8
2017-08-07T11:18:58.861Z,17.5
2017-08-07T11:19:59.536Z,17.8
2017-08-07T11:21:00.205Z,16.9
2017-08-07T11:22:00.874Z,18.4
2017-08-07T11:23:01.793Z,17.5
2017-08-07T11:24:02.463Z,17.5
2017-08-07T11:25:03.132Z,19.2
2017-08-07T11:26:03.803Z,16.6
2017-08-07T11:27:04.474Z,17.1
2017-08-07T11:28:05.392Z,15.6
2017-08-07T11:29:06.062Z,16.7
2017-08-07T11:30:06.733Z,17.4
2017-08-07T11:31:07.400Z,17.4
2017-08-07T11:32:08.069Z,17.5
2017-08-07T11:33:08.994Z,19.7
2017-08-07T11:34:09.661Z,14.6
2017-08-07T11:35:10.331Z,13.2
2017-08-07T11:36:11.003Z,12.0
2017-08-07T11:37:11.673Z,11.0
2017-08-07T11:38:12.646Z,11.1
2017-08-07T11:39:13.346Z,8.9
2017-08-07T11:40:14.019Z,9.8
2017-08-07T11:41:14.691Z,7.4
2017-08-07T11:42:15.360Z,8.1
2017-08-07T11:43:16.365Z,7.9
2017-08-07T11:44:17.072Z,7.6
2017-08-07T11:45:17.744Z,7.1
2017-08-07T11:46:18.415Z,6.8
2017-08-07T11:47:19.086Z,5.0
2017-08-07T11:48:20.010Z,5.2
2017-08-07T11:49:20.681Z,4.7
2017-08-07T11:50:21.393Z,5.5
2017-08-07T11:51:22.063Z,4.9
2017-08-07T11:52:22.734Z,4.5
2017-08-07T11:53:23.708Z,5.6
2017-08-07T11:54:24.379Z,8.0
2017-08-07T11:55:25.053Z,10.2
2017-08-07T11:56:25.728Z,11.7
2017-08-07T11:57:26.399Z,13.3
2017-08-07T11:58:27.385Z,14.6
2017-08-07T11:59:28.044Z,16.2
2017-08-07T12:00:28.715Z,16.9
2017-08-07T12:01:29.384Z,17.4
2017-08-07T12:02:30.057Z,14.5
2017-08-07T12:03:30.980Z,12.5
2017-08-07T12:04:31.650Z,11.0
2017-08-07T12:05:32.320Z,11.0
2017-08-07T12:06:32.988Z,9.3
2017-08-07T12:07:33.658Z,9.0
2017-08-07T12:08:34.579Z,9.9
2017-08-07T12:09:35.249Z,10.7
2017-08-07T12:10:35.920Z,11.9
2017-08-07T12:11:36.596Z,14.1
2017-08-07T12:12:37.299Z,12.6
2017-08-07T12:13:38.272Z,13.2
2017-08-07T12:14:38.944Z,14.7
2017-08-07T12:15:39.614Z,12.6
2017-08-07T12:16:40.285Z,11.3
2017-08-07T12:17:40.955Z,9.0
2017-08-07T12:18:41.875Z,8.1
2017-08-07T12:19:42.545Z,7.2
2017-08-07T12:20:43.213Z,8.2
2017-08-07T12:21:43.882Z,7.2
2017-08-07T12:22:44.554Z,8.2
2017-08-07T12:23:45.472Z,7.2
2017-08-07T12:24:46.145Z,6.8
2017-08-07T12:25:46.814Z,6.7
2017-08-07T12:26:47.484Z,7.2
2017-08-07T12:27:48.154Z,7.4
2017-08-07T12:28:49.124Z,8.2
2017-08-07T12:29:49.796Z,7.4
2017-08-07T12:30:50.502Z,5.5
2017-08-07T12:31:51.174Z,5.0
2017-08-07T12:32:51.845Z,4.8
2017-08-07T12:33:52.767Z,4.9
2017-08-07T12:34:53.442Z,4.5
2017-08-07T12:35:54.113Z,4.7
2017-08-07T12:36:54.785Z,4.7
2017-08-07T12:37:55.456Z,4.7
2017-08-07T12:38:56.431Z,5.3
2017-08-07T12:39:57.103Z,5.1
2017-08-07T12:40:57.777Z,5.0
2017-08-07T12:41:58.451Z,4.9
2017-08-07T12:42:59.123Z,4.1
2017-08-07T12:44:00.044Z,4.7
2017-08-07T12:45:00.719Z,4.1
2017-08-07T12:46:01.392Z,2.6
2017-08-07T12:47:02.066Z,4.8
2017-08-07T12:48:02.739Z,4.4
2017-08-07T12:49:03.659Z,7.5
2017-08-07T12:50:04.335Z,7.2
2017-08-07T12:51:05.008Z,4.3
2017-08-07T12:52:05.681Z,4.5
2017-08-07T12:53:06.357Z,4.8
2017-08-07T12:54:07.278Z,5.7
2017-08-07T12:55:07.950Z,5.4
2017-08-07T12:56:08.620Z,6.0
2017-08-07T12:57:09.291Z,7.3
2017-08-07T12:58:09.962Z,7.4
2017-08-07T12:59:10.887Z,8.0
2017-08-07T13:00:11.556Z,8.3
2017-08-07T13:01:12.231Z,8.7
2017-08-07T13:02:12.899Z,7.2
2017-08-07T13:03:13.570Z,8.2
2017-08-07T13:04:14.490Z,8.7
2017-08-07T13:05:15.162Z,10.7
2017-08-07T13:06:15.831Z,10.8
2017-08-07T13:07:16.504Z,10.5
2017-08-07T13:08:17.176Z,8.3
2017-08-07T13:09:18.097Z,8.2
2017-08-07T13:10:18.771Z,7.0
2017-08-07T13:11:19.438Z,6.2
2017-08-07T13:12:20.107Z,5.4
2017-08-07T13:13:20.776Z,4.8
2017-08-07T13:14:21.697Z,5.1
2017-08-07T13:15:22.370Z,4.2
2017-08-07T13:16:23.037Z,3.8
2017-08-07T13:17:23.707Z,3.3
2017-08-07T13:18:24.378Z,2.2
2017-08-07T13:19:25.305Z,3.2
2017-08-07T13:20:26.005Z,3.6
2017-08-07T13:21:26.675Z,4.7
2017-08-07T13:22:27.347Z,5.3
2017-08-07T13:23:28.019Z,3.6
2017-08-07T13:24:28.943Z,3.7
2017-08-07T13:25:29.617Z,2.9
2017-08-07T13:26:30.285Z,4.6
2017-08-07T13:27:30.956Z,5.9
2017-08-07T13:28:31.631Z,6.5
2017-08-07T13:29:32.602Z,4.3
2017-08-07T13:30:33.277Z,3.8
2017-08-07T13:31:33.994Z,4.3